createdAt,value
2023-02-21T00:00:40.751Z,96011
2023-02-21T00:01:50.414Z,96009
2023-02-21T00:02:58.073Z,96012
2023-02-21T00:04:06.768Z,96011
2023-02-21T00:05:16.433Z,96014
2023-02-21T00:06:26.050Z,96013
2023-02-21T00:07:35.710Z,96007
2023-02-21T00:08:43.364Z,96007
2023-02-21T00:09:53.049Z,96011
2023-02-21T00:11:02.698Z,96011
2023-02-21T00:12:11.356Z,96011
2023-02-21T00:13:21.041Z,96012
2023-02-21T00:14:30.685Z,96008
2023-02-21T00:15:39.320Z,96009
2023-02-21T00:16:48.967Z,96008
2023-02-21T00:17:56.596Z,96006
2023-02-21T00:19:05.278Z,96007
2023-02-21T00:20:17.323Z,96009
2023-02-21T00:21:23.618Z,96005
2023-02-21T00:22:32.258Z,96006
2023-02-21T00:23:40.921Z,96005
2023-02-21T00:24:50.633Z,96007
2023-02-21T00:26:00.288Z,96005
2023-02-21T00:27:08.936Z,96002
2023-02-21T00:28:18.601Z,95998
2023-02-21T00:29:28.263Z,95998
2023-02-21T00:30:36.016Z,96000
2023-02-21T00:31:45.555Z,95998
2023-02-21T00:32:54.276Z,95995
2023-02-21T00:34:02.885Z,95996
2023-02-21T00:35:12.534Z,95993
2023-02-21T00:36:21.207Z,95990
2023-02-21T00:37:29.812Z,95992
2023-02-21T00:38:39.502Z,95994
2023-02-21T00:39:48.148Z,95996
2023-02-21T00:40:56.786Z,96002
2023-02-21T00:42:04.428Z,96003
2023-02-21T00:43:13.069Z,95998
2023-02-21T00:44:22.745Z,95992
2023-02-21T00:45:31.386Z,96000
2023-02-21T00:46:40.026Z,95998
2023-02-21T00:47:49.664Z,95990
2023-02-21T00:48:59.382Z,95992
2023-02-21T00:50:08.040Z,95994
2023-02-21T00:51:17.738Z,95993
2023-02-21T00:52:27.369Z,95997
2023-02-21T00:53:37.039Z,95997
2023-02-21T00:54:46.685Z,95994
2023-02-21T00:55:55.369Z,95995
2023-02-21T00:57:05.025Z,95989
2023-02-21T00:58:14.674Z,95991
2023-02-21T00:59:23.353Z,95988
2023-02-21T01:00:30.989Z,95990
2023-02-21T01:01:40.712Z,95990
2023-02-21T01:02:50.299Z,95984
2023-02-21T01:04:00.034Z,95990
2023-02-21T01:05:09.646Z,95985
2023-02-21T01:06:19.300Z,95985
2023-02-21T01:07:26.933Z,95983
2023-02-21T01:08:36.621Z,95978
2023-02-21T01:09:46.263Z,95980
2023-02-21T01:10:54.927Z,95981
2023-02-21T01:12:03.570Z,95983
2023-02-21T01:13:12.211Z,95976
2023-02-21T01:14:21.882Z,95977
2023-02-21T01:15:31.555Z,95977
2023-02-21T01:16:40.178Z,95980
2023-02-21T01:17:49.858Z,95979
2023-02-21T01:18:58.514Z,95979
2023-02-21T01:20:08.164Z,95979
2023-02-21T01:21:16.872Z,95975
2023-02-21T01:22:26.461Z,95974
2023-02-21T01:23:36.131Z,95970
2023-02-21T01:24:44.826Z,95973
2023-02-21T01:25:53.444Z,95975
2023-02-21T01:27:03.087Z,95971
2023-02-21T01:28:12.756Z,95966
2023-02-21T01:29:22.421Z,95966
2023-02-21T01:30:31.090Z,95963
2023-02-21T01:31:39.767Z,95963
2023-02-21T01:32:49.392Z,95966
2023-02-21T01:33:57.037Z,95958
2023-02-21T01:35:06.706Z,95963
2023-02-21T01:36:16.357Z,95962
2023-02-21T01:37:24.014Z,95963
2023-02-21T01:38:32.646Z,95961
2023-02-21T01:39:42.327Z,95958
2023-02-21T01:40:50.994Z,95961
2023-02-21T01:42:00.649Z,95954
2023-02-21T01:43:09.272Z,95953
2023-02-21T01:44:18.961Z,95950
2023-02-21T01:45:28.612Z,95947
2023-02-21T01:46:36.252Z,95948
2023-02-21T01:47:44.902Z,95944
2023-02-21T01:48:53.948Z,95946
2023-02-21T01:50:02.210Z,95940
2023-02-21T01:51:12.088Z,95945
2023-02-21T01:52:19.542Z,95946
2023-02-21T01:53:29.186Z,95941
2023-02-21T01:54:38.851Z,95940
2023-02-21T01:55:46.500Z,95936
2023-02-21T01:56:55.154Z,95942
2023-02-21T01:58:04.870Z,95943
2023-02-21T01:59:14.411Z,95943
2023-02-21T02:00:24.084Z,95938
2023-02-21T02:01:32.806Z,95940
2023-02-21T02:02:41.382Z,95942
2023-02-21T02:03:51.023Z,95935
2023-02-21T02:04:58.678Z,95931
2023-02-21T02:06:07.321Z,95929
2023-02-21T02:07:15.987Z,95932
2023-02-21T02:08:24.633Z,95928
2023-02-21T02:09:34.286Z,95931
2023-02-21T02:10:41.975Z,95933
2023-02-21T02:11:51.596Z,95931
2023-02-21T02:13:01.267Z,95931
2023-02-21T02:14:08.878Z,95932
2023-02-21T02:15:17.569Z,95932
2023-02-21T02:16:26.217Z,95931
2023-02-21T02:17:34.905Z,95926
2023-02-21T02:18:44.544Z,95927
2023-02-21T02:19:53.246Z,95925
2023-02-21T02:21:02.885Z,95926
2023-02-21T02:22:12.550Z,95925
2023-02-21T02:23:21.198Z,95927
2023-02-21T02:24:28.853Z,95923
2023-02-21T02:25:38.532Z,95924
2023-02-21T02:26:48.206Z,95926
2023-02-21T02:27:57.850Z,95927
2023-02-21T02:29:05.517Z,95924
2023-02-21T02:30:14.182Z,95925
2023-02-21T02:31:23.885Z,95924
2023-02-21T02:32:32.436Z,95924
2023-02-21T02:33:41.098Z,95922
2023-02-21T02:34:50.776Z,95923
2023-02-21T02:36:00.439Z,95919
2023-02-21T02:37:10.099Z,95915
2023-02-21T02:38:18.750Z,95915
2023-02-21T02:39:27.457Z,95914
2023-02-21T02:40:37.125Z,95918
2023-02-21T02:41:45.779Z,95914
2023-02-21T02:42:54.430Z,95917
2023-02-21T02:44:03.065Z,95912
2023-02-21T02:45:11.750Z,95912
2023-02-21T02:46:21.405Z,95909
2023-02-21T02:47:31.070Z,95910
2023-02-21T02:48:39.703Z,95907
2023-02-21T02:49:49.353Z,95901
2023-02-21T02:50:58.013Z,95905
2023-02-21T02:52:06.672Z,95901
2023-02-21T02:53:16.308Z,95906
2023-02-21T02:54:24.940Z,95903
2023-02-21T02:55:34.620Z,95908
2023-02-21T02:56:43.264Z,95907
2023-02-21T02:57:52.943Z,95904
2023-02-21T02:59:02.596Z,95904
2023-02-21T03:00:11.257Z,95902
2023-02-21T03:01:20.982Z,95897
2023-02-21T03:02:30.614Z,95903
2023-02-21T03:03:40.281Z,95900
2023-02-21T03:04:49.910Z,95906
2023-02-21T03:05:58.583Z,95899
2023-02-21T03:07:08.228Z,95899
2023-02-21T03:08:17.876Z,95902
2023-02-21T03:09:27.532Z,95900
2023-02-21T03:10:38.197Z,95900
2023-02-21T03:11:45.842Z,95906
2023-02-21T03:12:55.492Z,95901
2023-02-21T03:14:05.124Z,95905
2023-02-21T03:15:13.756Z,95906
2023-02-21T03:16:23.501Z,95904
2023-02-21T03:17:33.097Z,95906
2023-02-21T03:18:41.722Z,95904
2023-02-21T03:19:51.359Z,95904
2023-02-21T03:21:00.029Z,95901
2023-02-21T03:22:09.674Z,95910
2023-02-21T03:23:18.322Z,95905
2023-02-21T03:24:26.951Z,95902
2023-02-21T03:25:36.600Z,95911
2023-02-21T03:26:44.263Z,95906
2023-02-21T03:27:52.940Z,95908
2023-02-21T03:29:02.602Z,95905
2023-02-21T03:30:09.340Z,95907
2023-02-21T03:31:18.975Z,95914
2023-02-21T03:32:28.610Z,95910
2023-02-21T03:33:37.272Z,95915
2023-02-21T03:34:46.902Z,95913
2023-02-21T03:35:56.591Z,95910
2023-02-21T03:37:05.225Z,95911
2023-02-21T03:38:15.864Z,95905
2023-02-21T03:39:24.508Z,95907
2023-02-21T03:40:33.162Z,95906
2023-02-21T03:41:42.828Z,95909
2023-02-21T03:42:52.468Z,95903
2023-02-21T03:44:01.117Z,95907
2023-02-21T03:45:09.755Z,95909
2023-02-21T03:46:19.465Z,95909
2023-02-21T03:47:29.079Z,95910
2023-02-21T03:48:36.729Z,95909
2023-02-21T03:49:45.417Z,95907
2023-02-21T03:50:55.049Z,95908
2023-02-21T03:52:03.778Z,95912
2023-02-21T03:53:13.419Z,95906
2023-02-21T03:54:22.096Z,95905
2023-02-21T03:55:31.742Z,95907
2023-02-21T03:56:42.470Z,95906
2023-02-21T03:57:49.103Z,95909
2023-02-21T03:58:58.728Z,95908
2023-02-21T04:00:08.344Z,95903
2023-02-21T04:01:18.218Z,95911
2023-02-21T04:02:26.662Z,95909
2023-02-21T04:03:35.308Z,95909
2023-02-21T04:04:43.934Z,95907
2023-02-21T04:05:53.617Z,95911
2023-02-21T04:07:03.279Z,95911
2023-02-21T04:08:11.912Z,95906
2023-02-21T04:09:21.556Z,95907
2023-02-21T04:10:33.924Z,95905
2023-02-21T04:11:41.838Z,95902
2023-02-21T04:12:49.478Z,95906
2023-02-21T04:13:58.124Z,95900
2023-02-21T04:15:07.783Z,95898
2023-02-21T04:16:15.517Z,95898
2023-02-21T04:17:25.121Z,95904
2023-02-21T04:18:35.245Z,95903
2023-02-21T04:19:42.421Z,95903
2023-02-21T04:20:53.099Z,95902
2023-02-21T04:22:02.875Z,95903
2023-02-21T04:23:12.495Z,95904
2023-02-21T04:24:22.143Z,95901
2023-02-21T04:25:30.806Z,95904
2023-02-21T04:26:40.487Z,95900
2023-02-21T04:27:49.127Z,95905
2023-02-21T04:28:57.786Z,95903
2023-02-21T04:30:07.503Z,95902
2023-02-21T04:31:16.487Z,95902
2023-02-21T04:32:24.935Z,95897
2023-02-21T04:33:34.473Z,95902
2023-02-21T04:34:43.113Z,95899
2023-02-21T04:35:52.778Z,95903
2023-02-21T04:37:01.443Z,95898
2023-02-21T04:38:11.112Z,95899
2023-02-21T04:39:20.734Z,95897
2023-02-21T04:40:29.400Z,95897
2023-02-21T04:41:39.052Z,95898
2023-02-21T04:42:48.740Z,95896
2023-02-21T04:43:56.375Z,95898
2023-02-21T04:45:06.040Z,95901
2023-02-21T04:46:15.691Z,95896
2023-02-21T04:47:24.359Z,95898
2023-02-21T04:48:34.031Z,95894
2023-02-21T04:49:41.676Z,95896
2023-02-21T04:50:51.315Z,95891
2023-02-21T04:52:01.996Z,95894
2023-02-21T04:53:10.632Z,95896
2023-02-21T04:54:19.299Z,95891
2023-02-21T04:55:28.926Z,95894
2023-02-21T04:56:37.837Z,95892
2023-02-21T04:57:46.254Z,95890
2023-02-21T04:58:54.892Z,95890
2023-02-21T05:00:04.546Z,95891
2023-02-21T05:01:14.556Z,95884
2023-02-21T05:02:22.847Z,95889
2023-02-21T05:03:31.502Z,95887
2023-02-21T05:04:41.146Z,95876
2023-02-21T05:05:50.860Z,95881
2023-02-21T05:07:00.505Z,95881
2023-02-21T05:08:09.193Z,95879
2023-02-21T05:09:18.848Z,95877
2023-02-21T05:10:40.103Z,95878
2023-02-21T05:11:37.161Z,95876
2023-02-21T05:12:46.856Z,95876
2023-02-21T05:13:54.501Z,95875
2023-02-21T05:15:03.140Z,95876
2023-02-21T05:16:12.855Z,95873
2023-02-21T05:17:21.465Z,95872
2023-02-21T05:18:31.114Z,95869
2023-02-21T05:19:38.797Z,95874
2023-02-21T05:20:48.446Z,95870
2023-02-21T05:21:58.096Z,95871
2023-02-21T05:23:13.279Z,95864
2023-02-21T05:24:16.391Z,95867
2023-02-21T05:25:24.031Z,95869
2023-02-21T05:26:32.687Z,95863
2023-02-21T05:27:42.336Z,95864
2023-02-21T05:28:50.970Z,95862
2023-02-21T05:29:59.651Z,95865
2023-02-21T05:31:09.396Z,95866
2023-02-21T05:32:17.001Z,95867
2023-02-21T05:33:25.640Z,95867
2023-02-21T05:34:34.292Z,95869
2023-02-21T05:35:43.931Z,95866
2023-02-21T05:36:52.577Z,95867
2023-02-21T05:38:01.269Z,95870
2023-02-21T05:39:09.924Z,95870
2023-02-21T05:40:19.542Z,95865
2023-02-21T05:41:27.193Z,95865
2023-02-21T05:42:36.903Z,95869
2023-02-21T05:43:46.537Z,95865
2023-02-21T05:44:55.182Z,95865
2023-02-21T05:46:04.938Z,95866
2023-02-21T05:47:12.568Z,95864
2023-02-21T05:48:22.223Z,95865
2023-02-21T05:49:31.883Z,95860
2023-02-21T05:50:39.554Z,95861
2023-02-21T05:51:49.186Z,95862
2023-02-21T05:52:58.881Z,95866
2023-02-21T05:54:08.527Z,95866
2023-02-21T05:55:18.217Z,95863
2023-02-21T05:56:25.884Z,95864
2023-02-21T05:57:35.542Z,95861
2023-02-21T05:58:45.226Z,95863
2023-02-21T05:59:54.913Z,95868
2023-02-21T06:01:11.590Z,95863
2023-02-21T06:02:21.276Z,95863
2023-02-21T06:03:30.019Z,95862
2023-02-21T06:04:38.560Z,95863
2023-02-21T06:05:48.229Z,95867
2023-02-21T06:06:57.880Z,95861
2023-02-21T06:08:05.548Z,95867
2023-02-21T06:09:15.189Z,95865
2023-02-21T06:10:23.851Z,95862
2023-02-21T06:11:33.551Z,95865
2023-02-21T06:12:42.219Z,95864
2023-02-21T06:13:51.924Z,95862
2023-02-21T06:15:01.573Z,95860
2023-02-21T06:16:11.275Z,95865
2023-02-21T06:17:19.935Z,95865
2023-02-21T06:18:28.622Z,95863
2023-02-21T06:19:38.261Z,95861
2023-02-21T06:20:47.912Z,95859
2023-02-21T06:21:56.570Z,95860
2023-02-21T06:23:05.211Z,95856
2023-02-21T06:24:14.949Z,95861
2023-02-21T06:25:23.609Z,95862
2023-02-21T06:26:32.293Z,95862
2023-02-21T06:27:41.940Z,95864
2023-02-21T06:28:51.613Z,95864
2023-02-21T06:30:01.294Z,95871
2023-02-21T06:31:11.017Z,95871
2023-02-21T06:32:19.668Z,95870
2023-02-21T06:33:29.270Z,95872
2023-02-21T06:34:37.916Z,95875
2023-02-21T06:35:47.568Z,95876
2023-02-21T06:36:56.270Z,95874
2023-02-21T06:38:04.920Z,95879
2023-02-21T06:39:14.600Z,95882
2023-02-21T06:40:22.245Z,95886
2023-02-21T06:41:31.904Z,95881
2023-02-21T06:42:41.556Z,95885
2023-02-21T06:43:49.235Z,95887
2023-02-21T06:44:58.892Z,95886
2023-02-21T06:46:07.606Z,95886
2023-02-21T06:47:17.198Z,95893
2023-02-21T06:48:25.882Z,95889
2023-02-21T06:49:34.553Z,95896
2023-02-21T06:50:43.209Z,95900
2023-02-21T06:51:52.902Z,95902
2023-02-21T06:53:01.565Z,95901
2023-02-21T06:54:10.323Z,95900
2023-02-21T06:55:20.028Z,95906
2023-02-21T06:56:29.684Z,95905
2023-02-21T06:57:39.337Z,95909
2023-02-21T06:58:47.036Z,95903
2023-02-21T06:59:55.688Z,95906
2023-02-21T07:01:05.365Z,95911
2023-02-21T07:02:14.043Z,95914
2023-02-21T07:03:22.715Z,95910
2023-02-21T07:04:31.466Z,95913
2023-02-21T07:05:41.086Z,95915
2023-02-21T07:06:50.734Z,95914
2023-02-21T07:07:59.500Z,95916
2023-02-21T07:09:09.208Z,95912
2023-02-21T07:10:18.845Z,95919
2023-02-21T07:11:28.510Z,95920
2023-02-21T07:12:38.179Z,95917
2023-02-21T07:13:46.837Z,95924
2023-02-21T07:14:55.536Z,95920
2023-02-21T07:16:04.232Z,95919
2023-02-21T07:17:12.854Z,95921
2023-02-21T07:18:22.532Z,95919
2023-02-21T07:19:31.223Z,95919
2023-02-21T07:20:40.891Z,95918
2023-02-21T07:21:50.565Z,95915
2023-02-21T07:22:59.236Z,95919
2023-02-21T07:24:07.960Z,95920
2023-02-21T07:25:16.656Z,95919
2023-02-21T07:26:26.350Z,95916
2023-02-21T07:27:36.068Z,95915
2023-02-21T07:28:44.750Z,95918
2023-02-21T07:29:54.414Z,95922
2023-02-21T07:31:04.097Z,95919
2023-02-21T07:32:12.738Z,95917
2023-02-21T07:33:22.380Z,95920
2023-02-21T07:34:31.088Z,95917
2023-02-21T07:35:40.719Z,95919
2023-02-21T07:36:50.452Z,95914
2023-02-21T07:37:59.113Z,95915
2023-02-21T07:39:08.773Z,95915
2023-02-21T07:40:17.468Z,95917
2023-02-21T07:41:25.123Z,95925
2023-02-21T07:42:33.767Z,95919
2023-02-21T07:43:42.436Z,95924
2023-02-21T07:44:51.103Z,95922
2023-02-21T07:46:00.791Z,95927
2023-02-21T07:47:08.404Z,95929
2023-02-21T07:48:18.080Z,95932
2023-02-21T07:49:27.749Z,95924
2023-02-21T07:50:35.457Z,95925
2023-02-21T07:51:43.082Z,95924
2023-02-21T07:52:51.732Z,95923
2023-02-21T07:54:00.411Z,95923
2023-02-21T07:55:10.093Z,95928
2023-02-21T07:56:17.970Z,95931
2023-02-21T07:57:26.630Z,95931
2023-02-21T07:58:36.298Z,95932
2023-02-21T07:59:45.973Z,95937
2023-02-21T08:00:54.665Z,95931
2023-02-21T08:02:04.346Z,95938
2023-02-21T08:03:13.017Z,95941
2023-02-21T08:04:22.699Z,95943
2023-02-21T08:05:30.313Z,95941
2023-02-21T08:06:39.089Z,95944
2023-02-21T08:07:48.662Z,95949
2023-02-21T08:08:57.328Z,95947
2023-02-21T08:10:06.014Z,95948
2023-02-21T08:11:15.919Z,95942
2023-02-21T08:12:24.344Z,95942
2023-02-21T08:13:33.029Z,95942
2023-02-21T08:14:42.694Z,95943
2023-02-21T08:15:51.379Z,95939
2023-02-21T08:17:01.024Z,95939
2023-02-21T08:18:09.680Z,95943
2023-02-21T08:19:18.368Z,95945
2023-02-21T08:20:27.055Z,95937
2023-02-21T08:21:35.738Z,95940
2023-02-21T08:22:46.425Z,95942
2023-02-21T08:23:56.060Z,95936
2023-02-21T08:25:04.749Z,95941
2023-02-21T08:26:14.398Z,95946
2023-02-21T08:27:22.055Z,95944
2023-02-21T08:28:30.711Z,95943
2023-02-21T08:29:39.375Z,95939
2023-02-21T08:30:48.046Z,95940
2023-02-21T08:31:57.768Z,95935
2023-02-21T08:33:06.414Z,95938
2023-02-21T08:34:16.065Z,95946
2023-02-21T08:35:26.733Z,95944
2023-02-21T08:36:34.379Z,95950
2023-02-21T08:37:42.037Z,95950
2023-02-21T08:38:50.721Z,95950
2023-02-21T08:40:00.358Z,95950
2023-02-21T08:41:10.041Z,95951
2023-02-21T08:42:17.719Z,95948
2023-02-21T08:43:26.388Z,95950
2023-02-21T08:44:36.053Z,95945
2023-02-21T08:45:43.733Z,95952
2023-02-21T08:46:53.471Z,95951
2023-02-21T08:48:03.089Z,95951
2023-02-21T08:49:11.748Z,95949
2023-02-21T08:50:21.438Z,95950
2023-02-21T08:51:30.097Z,95946
2023-02-21T08:52:38.744Z,95943
2023-02-21T08:53:48.431Z,95944
2023-02-21T08:54:56.132Z,95950
2023-02-21T08:56:04.792Z,95944
2023-02-21T08:57:13.464Z,95944
2023-02-21T08:58:22.120Z,95947
2023-02-21T08:59:30.780Z,95944
2023-02-21T09:00:38.533Z,95948
2023-02-21T09:01:47.313Z,95947
2023-02-21T09:02:54.907Z,95948
2023-02-21T09:04:03.588Z,95952
2023-02-21T09:05:13.291Z,95951
2023-02-21T09:06:20.984Z,95951
2023-02-21T09:07:30.620Z,95957
2023-02-21T09:08:38.270Z,95953
2023-02-21T09:09:47.929Z,95950
2023-02-21T09:10:57.691Z,95949
2023-02-21T09:12:06.300Z,95953
2023-02-21T09:13:16.016Z,95953
2023-02-21T09:14:25.676Z,95954
2023-02-21T09:15:33.366Z,95951
2023-02-21T09:16:42.084Z,95951
2023-02-21T09:17:50.738Z,95954
2023-02-21T09:18:59.418Z,95952
2023-02-21T09:20:09.103Z,95955
2023-02-21T09:21:16.883Z,95948
2023-02-21T09:22:26.442Z,95948
2023-02-21T09:23:36.122Z,95944
2023-02-21T09:24:43.786Z,95940
2023-02-21T09:25:52.483Z,95946
2023-02-21T09:27:03.174Z,95951
2023-02-21T09:28:12.785Z,95950
2023-02-21T09:29:22.478Z,95950
2023-02-21T09:30:31.144Z,95952
2023-02-21T09:31:39.848Z,95950
2023-02-21T09:32:49.429Z,95955
2023-02-21T09:33:58.065Z,95948
2023-02-21T09:35:06.752Z,95952
2023-02-21T09:36:16.435Z,95948
2023-02-21T09:37:26.083Z,95950
2023-02-21T09:38:35.753Z,95949
2023-02-21T09:39:44.432Z,95951
2023-02-21T09:40:53.089Z,95948
2023-02-21T09:42:02.749Z,95948
2023-02-21T09:43:11.427Z,95946
2023-02-21T09:44:21.078Z,95953
2023-02-21T09:45:29.820Z,95948
2023-02-21T09:46:38.454Z,95951
2023-02-21T09:47:48.114Z,95942
2023-02-21T09:48:56.765Z,95933
2023-02-21T09:50:05.413Z,95937
2023-02-21T09:51:16.485Z,95935
2023-02-21T09:52:23.814Z,95935
2023-02-21T09:53:32.471Z,95934
2023-02-21T09:54:41.124Z,95937
2023-02-21T09:55:50.873Z,95931
2023-02-21T09:57:00.477Z,95932
2023-02-21T09:58:09.116Z,95937
2023-02-21T09:59:18.819Z,95931
2023-02-21T10:00:28.451Z,95938
2023-02-21T10:01:37.219Z,95934
2023-02-21T10:02:45.770Z,95931
2023-02-21T10:03:54.422Z,95932
2023-02-21T10:05:03.251Z,95928
2023-02-21T10:06:12.754Z,95929
2023-02-21T10:07:20.501Z,95929
2023-02-21T10:08:29.137Z,95934
2023-02-21T10:09:38.851Z,95937
2023-02-21T10:10:47.504Z,95936
2023-02-21T10:11:56.181Z,95941
2023-02-21T10:13:05.845Z,95936
2023-02-21T10:14:14.504Z,95934
2023-02-21T10:15:24.188Z,95935
2023-02-21T10:16:33.065Z,95936
2023-02-21T10:17:41.686Z,95937
2023-02-21T10:18:51.373Z,95935
2023-02-21T10:20:00.011Z,95932
2023-02-21T10:21:08.655Z,95935
2023-02-21T10:22:18.324Z,95940
2023-02-21T10:23:26.974Z,95936
2023-02-21T10:24:36.611Z,95941
2023-02-21T10:25:45.288Z,95941
2023-02-21T10:26:54.965Z,95946
2023-02-21T10:28:04.684Z,95940
2023-02-21T10:29:13.317Z,95944
2023-02-21T10:30:23.096Z,95941
2023-02-21T10:31:31.803Z,95941
2023-02-21T10:32:41.383Z,95946
2023-02-21T10:33:51.042Z,95949
2023-02-21T10:34:58.730Z,95949
2023-02-21T10:36:08.390Z,95948
2023-02-21T10:37:19.085Z,95952
2023-02-21T10:38:27.715Z,95944
2023-02-21T10:39:37.373Z,95948
2023-02-21T10:40:46.006Z,95942
2023-02-21T10:41:54.753Z,95941
2023-02-21T10:43:04.421Z,95942
2023-02-21T10:44:12.088Z,95942
2023-02-21T10:45:20.713Z,95941
2023-02-21T10:46:30.356Z,95945
2023-02-21T10:47:38.048Z,95945
2023-02-21T10:48:46.700Z,95940
2023-02-21T10:49:55.352Z,95936
2023-02-21T10:51:05.027Z,95939
2023-02-21T10:52:14.747Z,95940
2023-02-21T10:53:24.533Z,95936
2023-02-21T10:54:35.398Z,95937
2023-02-21T10:55:44.877Z,95935
2023-02-21T10:56:54.567Z,95929
2023-02-21T10:58:03.225Z,95933
2023-02-21T10:59:12.890Z,95930
2023-02-21T11:00:21.565Z,95931
2023-02-21T11:01:30.460Z,95931
2023-02-21T11:02:40.086Z,95927
2023-02-21T11:03:49.684Z,95928
2023-02-21T11:04:59.341Z,95925
2023-02-21T11:06:07.009Z,95928
2023-02-21T11:07:16.703Z,95930
2023-02-21T11:08:26.392Z,95927
2023-02-21T11:09:35.107Z,95924
2023-02-21T11:10:43.764Z,95925
2023-02-21T11:11:52.450Z,95922
2023-02-21T11:13:01.147Z,95921
2023-02-21T11:14:10.825Z,95919
2023-02-21T11:15:18.524Z,95920
2023-02-21T11:16:27.201Z,95920
2023-02-21T11:17:36.942Z,95912
2023-02-21T11:18:44.617Z,95910
2023-02-21T11:19:54.273Z,95908
2023-02-21T11:21:03.936Z,95907
2023-02-21T11:22:12.595Z,95904
2023-02-21T11:23:22.303Z,95903
2023-02-21T11:24:31.050Z,95897
2023-02-21T11:25:39.748Z,95898
2023-02-21T11:26:49.437Z,95896
2023-02-21T11:27:59.177Z,95893
2023-02-21T11:29:07.850Z,95888
2023-02-21T11:30:17.690Z,95893
2023-02-21T11:31:26.223Z,95890
2023-02-21T11:32:35.951Z,95888
2023-02-21T11:33:44.612Z,95881
2023-02-21T11:34:54.337Z,95881
2023-02-21T11:36:03.001Z,95878
2023-02-21T11:37:11.665Z,95882
2023-02-21T11:38:21.378Z,95880
2023-02-21T11:39:31.051Z,95877
2023-02-21T11:40:39.711Z,95877
2023-02-21T11:41:49.394Z,95874
2023-02-21T11:42:58.114Z,95873
2023-02-21T11:44:07.827Z,95869
2023-02-21T11:45:16.531Z,95868
2023-02-21T11:46:26.295Z,95864
2023-02-21T11:47:35.933Z,95861
2023-02-21T11:48:43.622Z,95863
2023-02-21T11:49:53.358Z,95858
2023-02-21T11:51:02.035Z,95863
2023-02-21T11:52:10.696Z,95858
2023-02-21T11:53:20.370Z,95858
2023-02-21T11:54:29.031Z,95855
2023-02-21T11:55:37.698Z,95856
2023-02-21T11:56:47.391Z,95852
2023-02-21T11:57:55.074Z,95853
2023-02-21T11:59:03.768Z,95855
2023-02-21T12:00:13.466Z,95855
2023-02-21T12:01:22.180Z,95852
2023-02-21T12:02:31.916Z,95853
2023-02-21T12:03:38.508Z,95843
2023-02-21T12:04:47.249Z,95846
2023-02-21T12:05:56.934Z,95844
2023-02-21T12:07:04.611Z,95842
2023-02-21T12:08:14.288Z,95835
2023-02-21T12:09:23.955Z,95830
2023-02-21T12:10:32.607Z,95832
2023-02-21T12:11:42.337Z,95833
2023-02-21T12:12:52.110Z,95826
2023-02-21T12:14:01.813Z,95827
2023-02-21T12:15:10.476Z,95826
2023-02-21T12:16:18.211Z,95824
2023-02-21T12:17:27.868Z,95823
2023-02-21T12:18:36.632Z,95824
2023-02-21T12:19:45.291Z,95821
2023-02-21T12:20:55.013Z,95820
2023-02-21T12:22:02.648Z,95819
2023-02-21T12:23:11.342Z,95809
2023-02-21T12:24:20.980Z,95816
2023-02-21T12:25:30.645Z,95814
2023-02-21T12:26:39.474Z,95810
2023-02-21T12:27:49.363Z,95810
2023-02-21T12:28:59.055Z,95808
2023-02-21T12:30:08.805Z,95813
2023-02-21T12:31:17.924Z,95808
2023-02-21T12:32:27.158Z,95802
2023-02-21T12:33:37.895Z,95804
2023-02-21T12:34:45.568Z,95799
2023-02-21T12:35:55.317Z,95796
2023-02-21T12:37:03.982Z,95794
2023-02-21T12:38:12.670Z,95795
2023-02-21T12:39:22.349Z,95794
2023-02-21T12:40:30.025Z,95793
2023-02-21T12:41:38.691Z,95796
2023-02-21T12:42:48.425Z,95792
2023-02-21T12:43:56.166Z,95797
2023-02-21T12:45:04.859Z,95796
2023-02-21T12:46:13.555Z,95788
2023-02-21T12:47:22.229Z,95792
2023-02-21T12:48:31.930Z,95790
2023-02-21T12:49:40.630Z,95779
2023-02-21T12:50:50.374Z,95788
2023-02-21T12:52:00.121Z,95784
2023-02-21T12:53:07.807Z,95778
2023-02-21T12:54:16.498Z,95782
2023-02-21T12:55:26.169Z,95780
2023-02-21T12:56:34.845Z,95775
2023-02-21T12:57:44.527Z,95774
2023-02-21T12:58:53.239Z,95777
2023-02-21T13:00:02.994Z,95776
2023-02-21T13:01:12.798Z,95770
2023-02-21T13:02:22.303Z,95774
2023-02-21T13:03:31.026Z,95770
2023-02-21T13:04:40.742Z,95768
2023-02-21T13:05:49.405Z,95765
2023-02-21T13:06:59.084Z,95762
2023-02-21T13:08:06.920Z,95761
2023-02-21T13:09:15.572Z,95758
2023-02-21T13:10:25.312Z,95761
2023-02-21T13:11:34.120Z,95754
2023-02-21T13:12:43.771Z,95760
2023-02-21T13:13:53.459Z,95757
2023-02-21T13:15:03.192Z,95756
2023-02-21T13:16:12.975Z,95756
2023-02-21T13:17:21.552Z,95751
2023-02-21T13:18:30.219Z,95744
2023-02-21T13:19:39.915Z,95749
2023-02-21T13:20:47.607Z,95748
2023-02-21T13:21:56.305Z,95743
2023-02-21T13:23:05.015Z,95742
2023-02-21T13:24:13.741Z,95744
2023-02-21T13:25:23.405Z,95736
2023-02-21T13:26:31.100Z,95735
2023-02-21T13:27:40.743Z,95731
2023-02-21T13:28:50.420Z,95729
2023-02-21T13:30:00.172Z,95723
2023-02-21T13:31:09.076Z,95726
2023-02-21T13:32:17.751Z,95723
2023-02-21T13:33:26.219Z,95720
2023-02-21T13:34:34.943Z,95718
2023-02-21T13:35:44.671Z,95714
2023-02-21T13:36:54.375Z,95720
2023-02-21T13:38:03.155Z,95712
2023-02-21T13:39:11.821Z,95716
2023-02-21T13:40:21.511Z,95711
2023-02-21T13:41:29.168Z,95719
2023-02-21T13:42:37.873Z,95712
2023-02-21T13:43:47.590Z,95710
2023-02-21T13:44:56.259Z,95708
2023-02-21T13:46:05.948Z,95709
2023-02-21T13:47:15.724Z,95705
2023-02-21T13:48:24.385Z,95703
2023-02-21T13:49:34.110Z,95702
2023-02-21T13:50:42.800Z,95701
2023-02-21T13:51:51.482Z,95700
2023-02-21T13:53:01.158Z,95698
2023-02-21T13:54:09.842Z,95697
2023-02-21T13:55:19.578Z,95698
2023-02-21T13:56:28.304Z,95701
2023-02-21T13:57:38.022Z,95697
2023-02-21T13:58:47.721Z,95692
2023-02-21T13:59:56.403Z,95690
2023-02-21T14:01:06.097Z,95688
2023-02-21T14:02:15.762Z,95683
2023-02-21T14:03:24.443Z,95687
2023-02-21T14:04:34.130Z,95688
2023-02-21T14:05:41.800Z,95688
2023-02-21T14:06:51.493Z,95681
2023-02-21T14:08:01.196Z,95683
2023-02-21T14:09:08.864Z,95682
2023-02-21T14:10:17.539Z,95683
2023-02-21T14:11:27.416Z,95676
2023-02-21T14:12:36.082Z,95674
2023-02-21T14:13:44.788Z,95670
2023-02-21T14:14:54.513Z,95671
2023-02-21T14:16:04.211Z,95670
2023-02-21T14:17:13.921Z,95667
2023-02-21T14:18:23.563Z,95669
2023-02-21T14:19:32.458Z,95671
2023-02-21T14:20:41.147Z,95669
2023-02-21T14:21:49.808Z,95667
2023-02-21T14:22:59.512Z,95664
2023-02-21T14:24:07.181Z,95663
2023-02-21T14:25:15.901Z,95655
2023-02-21T14:26:25.623Z,95658
2023-02-21T14:27:34.350Z,95656
2023-02-21T14:28:44.086Z,95656
2023-02-21T14:29:53.848Z,95653
2023-02-21T14:31:02.496Z,95650
2023-02-21T14:32:12.389Z,95654
2023-02-21T14:33:20.001Z,95655
2023-02-21T14:34:28.672Z,95655
2023-02-21T14:35:38.437Z,95650
2023-02-21T14:36:47.118Z,95647
2023-02-21T14:37:55.795Z,95650
2023-02-21T14:39:04.524Z,95648
2023-02-21T14:40:13.247Z,95648
2023-02-21T14:41:22.977Z,95643
2023-02-21T14:42:31.657Z,95645
2023-02-21T14:43:41.337Z,95644
2023-02-21T14:44:51.031Z,95640
2023-02-21T14:45:59.773Z,95644
2023-02-21T14:47:08.614Z,95643
2023-02-21T14:48:18.117Z,95642
2023-02-21T14:49:26.790Z,95638